ダカール の空港の天気 - METARとTAF

レオポール・セダール・サンゴール国際空港 ( GOOY / DKR ) - セネガル ダカール
飛行場実況気象(Metar)
観測時間05/25 23:00 GMT (05/25 23:00 UTC)
風向・風速北西 7m/s
視程10km以上
天気現象
全天の8割程度の雲 雲底高度 340m
気温22℃
湿度94%
気圧1014hPa
METARGOOY 252300Z 32014KT 9999 BKN011 22/21 Q1014
過去の天気等 Google飛行場航空写真 Wunderground天気予報

過去48時間のMETAR

飛行場予報(TAF)
発表時間: 5/25 23:30 GMT (5/25 23:30 UTC)
予報対象時間: 26日0時 GMT ~ 27日6時 GMT
風向・風速北西 5m/s
視程10km以上
全天の8割程度の雲 雲底高度 300m
TAF GOOY 252330Z 2600/2706 31010KT 9999 BKN010